createdAt,value
2022-09-28T00:01:08.106Z,9.00
2022-09-28T00:03:36.083Z,8.90
2022-09-28T00:06:07.218Z,9.70
2022-09-28T00:08:37.746Z,8.80
2022-09-28T00:11:08.095Z,10.50
2022-09-28T00:13:35.746Z,8.80
2022-09-28T00:16:13.295Z,9.90
2022-09-28T00:18:41.531Z,8.80
2022-09-28T00:21:12.932Z,8.60
2022-09-28T00:23:59.820Z,8.80
2022-09-28T00:26:29.321Z,8.50
2022-09-28T00:28:59.255Z,8.40
2022-09-28T00:31:28.085Z,8.80
2022-09-28T00:33:56.972Z,10.70
2022-09-28T00:36:27.139Z,8.90
2022-09-28T00:38:56.467Z,8.90
2022-09-28T00:41:25.844Z,10.20
2022-09-28T00:43:54.346Z,10.00
2022-09-28T00:46:33.500Z,9.60
2022-09-28T00:49:11.380Z,9.00
2022-09-28T00:51:42.076Z,9.00
2022-09-28T00:54:10.852Z,10.10
2022-09-28T00:56:40.344Z,8.50
2022-09-28T00:59:09.290Z,11.20
2022-09-28T01:01:37.420Z,9.90
2022-09-28T01:04:06.071Z,9.50
2022-09-28T01:06:36.230Z,9.40
2022-09-28T01:09:07.586Z,9.10
2022-09-28T01:11:38.477Z,8.30
2022-09-28T01:14:11.914Z,9.10
2022-09-28T01:17:09.432Z,9.00
2022-09-28T01:20:08.356Z,9.00
2022-09-28T01:23:00.809Z,9.00
2022-09-28T01:26:00.445Z,9.00
2022-09-28T01:28:29.283Z,8.90
2022-09-28T01:30:59.875Z,8.60
2022-09-28T01:33:35.430Z,9.10
2022-09-28T01:36:20.849Z,8.90
2022-09-28T01:39:10.833Z,8.80
2022-09-28T01:41:40.401Z,10.30
2022-09-28T01:44:12.909Z,8.80
2022-09-28T01:46:44.650Z,10.70
2022-09-28T01:49:24.745Z,11.20
2022-09-28T01:52:00.908Z,9.10
2022-09-28T01:55:09.216Z,10.00
2022-09-28T01:57:39.669Z,8.70
2022-09-28T02:00:13.144Z,8.70
2022-09-28T02:02:58.454Z,8.70
2022-09-28T02:05:55.167Z,8.70
2022-09-28T02:08:31.635Z,9.00
2022-09-28T02:11:19.308Z,10.20
2022-09-28T02:14:06.341Z,8.70
2022-09-28T02:16:52.225Z,8.60
2022-09-28T02:19:28.242Z,8.60
2022-09-28T02:22:33.721Z,8.60
2022-09-28T02:25:11.757Z,8.70
2022-09-28T02:28:01.716Z,8.70
2022-09-28T02:30:31.281Z,8.70
2022-09-28T02:33:12.350Z,8.70
2022-09-28T02:35:42.544Z,8.70
2022-09-28T02:38:14.744Z,9.70
2022-09-28T02:40:47.360Z,8.70
2022-09-28T02:43:31.511Z,8.80
2022-09-28T02:46:23.645Z,8.50
2022-09-28T02:49:29.821Z,8.60
2022-09-28T02:52:15.750Z,8.60
2022-09-28T02:54:58.564Z,8.60
2022-09-28T02:57:52.333Z,8.60
2022-09-28T03:00:22.913Z,8.60
2022-09-28T03:02:56.626Z,9.90
2022-09-28T03:05:38.078Z,9.10
2022-09-28T03:08:29.016Z,8.50
2022-09-28T03:11:00.960Z,10.00
2022-09-28T03:13:29.317Z,8.50
2022-09-28T03:16:27.654Z,8.50
2022-09-28T03:18:55.217Z,9.10
2022-09-28T03:21:22.714Z,8.60
2022-09-28T03:23:50.045Z,8.00
2022-09-28T03:26:18.040Z,8.30
2022-09-28T03:28:45.652Z,8.60
2022-09-28T03:31:18.329Z,8.60
2022-09-28T03:33:46.008Z,7.50
2022-09-28T03:36:15.075Z,9.70
2022-09-28T03:38:42.555Z,10.70
2022-09-28T03:41:11.131Z,8.50
2022-09-28T03:43:41.488Z,9.30
2022-09-28T03:46:09.007Z,10.20
2022-09-28T03:48:41.881Z,8.70
2022-09-28T03:51:11.961Z,8.20
2022-09-28T03:53:40.189Z,9.90
2022-09-28T03:56:15.191Z,10.00
2022-09-28T03:58:42.506Z,9.80
2022-09-28T04:01:16.865Z,8.50
2022-09-28T04:03:46.647Z,9.60
2022-09-28T04:06:14.764Z,9.60
2022-09-28T04:08:43.493Z,9.40
2022-09-28T04:11:11.468Z,8.40
2022-09-28T04:13:39.305Z,9.70
2022-09-28T04:16:11.016Z,10.20
2022-09-28T04:18:40.066Z,9.70
2022-09-28T04:21:26.181Z,8.40
2022-09-28T04:24:04.033Z,10.30
2022-09-28T04:26:31.477Z,8.30
2022-09-28T04:29:17.383Z,9.40
2022-09-28T04:31:51.175Z,9.40
2022-09-28T04:34:22.014Z,7.60
2022-09-28T04:36:50.520Z,8.20
2022-09-28T04:39:19.432Z,8.10
2022-09-28T04:41:53.352Z,9.20
2022-09-28T04:44:20.764Z,8.20
2022-09-28T04:46:50.711Z,9.60
2022-09-28T04:49:30.233Z,8.30
2022-09-28T04:52:09.426Z,10.00
2022-09-28T04:54:36.906Z,9.00
2022-09-28T04:57:08.295Z,9.50
2022-09-28T04:59:37.030Z,6.80
2022-09-28T05:02:05.204Z,10.20
2022-09-28T05:04:50.928Z,8.40
2022-09-28T05:07:37.074Z,10.40
2022-09-28T05:10:06.821Z,8.30
2022-09-28T05:12:34.528Z,8.40
2022-09-28T05:15:01.940Z,9.20
2022-09-28T05:17:29.368Z,9.80
2022-09-28T05:20:16.974Z,10.10
2022-09-28T05:22:44.373Z,10.00
2022-09-28T05:25:11.727Z,9.80
2022-09-28T05:27:57.002Z,8.40
2022-09-28T05:30:44.605Z,8.30
2022-09-28T05:33:27.023Z,8.30
2022-09-28T05:36:04.586Z,8.60
2022-09-28T05:38:32.060Z,8.20
2022-09-28T05:41:03.195Z,8.20
2022-09-28T05:43:33.325Z,8.60
2022-09-28T05:46:00.849Z,8.50
2022-09-28T05:48:28.394Z,9.30
2022-09-28T05:50:56.240Z,8.10
2022-09-28T05:53:23.670Z,8.10
2022-09-28T05:55:51.026Z,8.10
2022-09-28T05:58:18.355Z,8.50
2022-09-28T06:00:45.840Z,8.10
2022-09-28T06:03:14.683Z,10.00
2022-09-28T06:05:42.155Z,8.20
2022-09-28T06:08:10.732Z,8.10
2022-09-28T06:10:41.230Z,8.20
2022-09-28T06:13:08.773Z,10.30
2022-09-28T06:15:37.047Z,7.80
2022-09-28T06:18:11.668Z,8.20
2022-09-28T06:20:52.169Z,7.20
2022-09-28T06:23:28.922Z,8.30
2022-09-28T06:25:56.305Z,9.50
2022-09-28T06:28:23.679Z,8.00
2022-09-28T06:30:51.302Z,8.40
2022-09-28T06:33:19.597Z,8.40
2022-09-28T06:35:47.103Z,8.30
2022-09-28T06:38:14.446Z,10.10
2022-09-28T06:40:41.912Z,8.70
2022-09-28T06:43:17.785Z,8.30
2022-09-28T06:46:03.688Z,8.40
2022-09-28T06:48:50.107Z,8.70
2022-09-28T06:51:40.464Z,8.40
2022-09-28T06:54:18.717Z,9.00
2022-09-28T06:56:54.439Z,9.00
2022-09-28T06:59:22.002Z,11.20
2022-09-28T07:01:49.413Z,10.40
2022-09-28T07:04:37.161Z,9.20
2022-09-28T07:07:22.860Z,9.20
2022-09-28T07:10:03.229Z,9.30
2022-09-28T07:12:44.182Z,9.40
2022-09-28T07:15:29.620Z,10.90
2022-09-28T07:18:03.593Z,9.40
2022-09-28T07:20:40.375Z,9.60
2022-09-28T07:23:19.383Z,10.00
2022-09-28T07:26:26.038Z,9.80
2022-09-28T07:28:59.459Z,9.90
2022-09-28T07:31:57.195Z,11.50
2022-09-28T07:34:48.744Z,10.00
2022-09-28T07:37:29.036Z,10.10
2022-09-28T07:40:16.653Z,11.10
2022-09-28T07:42:44.088Z,11.20
2022-09-28T07:45:12.738Z,10.30
2022-09-28T07:47:40.239Z,12.20
2022-09-28T07:50:36.882Z,10.00
2022-09-28T07:53:14.992Z,10.40
2022-09-28T07:56:09.468Z,11.70
2022-09-28T07:58:49.697Z,10.80
2022-09-28T08:01:23.044Z,10.90
2022-09-28T08:03:56.283Z,11.40
2022-09-28T08:06:23.898Z,10.90
2022-09-28T08:08:57.395Z,11.00
2022-09-28T08:11:36.216Z,10.90
2022-09-28T08:14:27.071Z,11.20
2022-09-28T08:16:54.370Z,11.30
2022-09-28T08:20:01.228Z,11.40
2022-09-28T08:22:32.239Z,10.90
2022-09-28T08:25:00.700Z,11.50
2022-09-28T08:27:29.570Z,11.60
2022-09-28T08:29:56.995Z,11.70
2022-09-28T08:32:53.682Z,12.60
2022-09-28T08:35:46.878Z,11.90
2022-09-28T08:38:14.389Z,11.80
2022-09-28T08:41:12.734Z,11.80
2022-09-28T08:44:23.873Z,11.90
2022-09-28T08:47:43.593Z,12.00
2022-09-28T08:51:02.224Z,12.10
2022-09-28T08:53:54.643Z,12.20
2022-09-28T08:56:43.015Z,12.20
2022-09-28T08:59:42.003Z,12.30
2022-09-28T09:02:36.324Z,12.20
2022-09-28T09:05:24.171Z,12.50
2022-09-28T09:08:14.034Z,12.80
2022-09-28T09:11:02.511Z,12.80
2022-09-28T09:13:52.713Z,12.90
2022-09-28T09:16:46.333Z,13.00
2022-09-28T09:19:51.219Z,13.20
2022-09-28T09:22:33.506Z,13.30
2022-09-28T09:25:07.259Z,13.30
2022-09-28T09:27:55.734Z,13.30
2022-09-28T09:30:29.110Z,13.40
2022-09-28T09:33:24.210Z,13.30
2022-09-28T09:36:48.548Z,13.30
2022-09-28T09:40:09.274Z,13.40
2022-09-28T09:43:38.458Z,13.40
2022-09-28T09:46:58.566Z,13.40
2022-09-28T09:50:12.112Z,13.50
2022-09-28T09:52:52.188Z,13.60
2022-09-28T09:55:29.649Z,13.70
2022-09-28T09:58:21.783Z,15.00
2022-09-28T10:00:59.554Z,14.00
2022-09-28T10:03:48.713Z,14.10
2022-09-28T10:06:38.093Z,14.80
2022-09-28T10:09:20.058Z,14.40
2022-09-28T10:11:51.882Z,14.40
2022-09-28T10:14:22.899Z,14.50
2022-09-28T10:16:58.414Z,14.40
2022-09-28T10:19:44.595Z,14.30
2022-09-28T10:22:32.141Z,14.20
2022-09-28T10:25:08.903Z,14.10
2022-09-28T10:27:41.116Z,14.40
2022-09-28T10:30:11.426Z,16.40
2022-09-28T10:32:46.608Z,14.70
2022-09-28T10:35:22.105Z,14.70
2022-09-28T10:37:57.628Z,14.90
2022-09-28T10:41:09.562Z,15.00
2022-09-28T10:44:06.500Z,16.70
2022-09-28T10:46:39.866Z,14.90
2022-09-28T10:49:20.147Z,14.80
2022-09-28T10:51:58.968Z,14.80
2022-09-28T10:54:31.958Z,14.80
2022-09-28T10:57:01.052Z,14.70
2022-09-28T10:59:43.158Z,16.50
2022-09-28T11:02:40.055Z,14.80
2022-09-28T11:05:24.473Z,15.40
2022-09-28T11:07:55.923Z,14.80
2022-09-28T11:10:31.062Z,14.70
2022-09-28T11:13:09.537Z,15.10
2022-09-28T11:15:43.490Z,14.60
2022-09-28T11:18:28.198Z,15.80
2022-09-28T11:21:14.650Z,14.60
2022-09-28T11:24:19.285Z,14.30
2022-09-28T11:26:54.400Z,14.80
2022-09-28T11:29:42.367Z,14.80
2022-09-28T11:32:45.451Z,14.80
2022-09-28T11:35:44.222Z,14.90
2022-09-28T11:38:27.400Z,14.80
2022-09-28T11:41:22.994Z,14.70
2022-09-28T11:44:18.209Z,14.80
2022-09-28T11:47:16.457Z,15.10
2022-09-28T11:50:14.258Z,15.20
2022-09-28T11:52:59.526Z,15.50
2022-09-28T11:56:09.281Z,15.90
2022-09-28T11:58:55.455Z,16.20
2022-09-28T12:01:40.531Z,16.30
2022-09-28T12:04:20.296Z,16.30
2022-09-28T12:06:53.861Z,16.30
2022-09-28T12:09:39.853Z,16.30
2022-09-28T12:12:25.477Z,16.40
2022-09-28T12:14:59.805Z,16.50
2022-09-28T12:17:42.704Z,16.50
2022-09-28T12:20:38.402Z,16.50
2022-09-28T12:23:14.178Z,16.50
2022-09-28T12:25:48.502Z,16.50
2022-09-28T12:28:31.983Z,16.30
2022-09-28T12:31:10.481Z,16.10
2022-09-28T12:33:39.013Z,15.80
2022-09-28T12:36:45.678Z,15.40
2022-09-28T12:39:56.999Z,15.40
2022-09-28T12:42:41.138Z,15.30
2022-09-28T12:45:30.987Z,15.10
2022-09-28T12:48:11.685Z,15.00
2022-09-28T12:51:02.603Z,14.90
2022-09-28T12:53:57.081Z,14.90
2022-09-28T12:56:52.847Z,14.80
2022-09-28T12:59:38.390Z,14.80
2022-09-28T13:02:32.423Z,14.70
2022-09-28T13:05:19.502Z,14.70
2022-09-28T13:08:07.055Z,14.70
2022-09-28T13:11:06.968Z,14.60
2022-09-28T13:14:03.015Z,14.70
2022-09-28T13:16:36.258Z,14.80
2022-09-28T13:19:29.498Z,14.70
2022-09-28T13:22:27.499Z,14.60
2022-09-28T13:24:58.433Z,14.70
2022-09-28T13:27:37.147Z,14.70
2022-09-28T13:30:08.747Z,14.70
2022-09-28T13:32:37.469Z,14.70
2022-09-28T13:35:06.379Z,15.20
2022-09-28T13:37:34.674Z,14.70
2022-09-28T13:40:06.157Z,14.70
2022-09-28T13:42:42.390Z,14.60
2022-09-28T13:45:26.923Z,14.60
2022-09-28T13:47:57.605Z,15.10
2022-09-28T13:50:44.463Z,14.60
2022-09-28T13:53:24.137Z,14.60
2022-09-28T13:56:20.956Z,14.70
2022-09-28T13:59:10.980Z,14.60
2022-09-28T14:02:06.312Z,14.60
2022-09-28T14:04:55.002Z,14.60
2022-09-28T14:10:20.865Z,16.60
2022-09-28T14:12:51.298Z,14.60
2022-09-28T14:15:43.951Z,14.60
2022-09-28T14:18:36.030Z,14.90
2022-09-28T14:21:26.269Z,14.70
2022-09-28T14:24:11.567Z,14.70
2022-09-28T14:27:07.506Z,14.70
2022-09-28T14:29:38.184Z,14.70
2022-09-28T14:32:08.508Z,14.60
2022-09-28T14:34:42.728Z,14.50
2022-09-28T14:37:49.997Z,14.50
2022-09-28T14:40:50.237Z,14.50
2022-09-28T14:43:44.838Z,14.50
2022-09-28T14:46:14.972Z,14.50
2022-09-28T14:49:06.744Z,14.50
2022-09-28T14:51:35.394Z,14.60
2022-09-28T14:54:04.847Z,14.60
2022-09-28T14:56:57.976Z,13.10
2022-09-28T14:59:25.386Z,14.70
2022-09-28T15:02:13.656Z,14.80
2022-09-28T15:04:56.864Z,14.90
2022-09-28T15:07:28.740Z,15.10
2022-09-28T15:09:57.976Z,15.80
2022-09-28T15:12:27.845Z,15.30
2022-09-28T15:15:04.301Z,15.40
2022-09-28T15:17:39.981Z,15.50
2022-09-28T15:20:24.133Z,15.50
2022-09-28T15:22:59.520Z,15.40
2022-09-28T15:25:32.323Z,15.30
2022-09-28T15:28:03.435Z,15.70
2022-09-28T15:30:33.615Z,15.20
2022-09-28T15:33:40.301Z,15.20
2022-09-28T15:36:12.392Z,15.20
2022-09-28T15:38:41.590Z,15.10
2022-09-28T15:41:10.278Z,15.20
2022-09-28T15:43:37.948Z,15.10
2022-09-28T15:46:20.924Z,15.10
2022-09-28T15:48:52.160Z,15.10
2022-09-28T15:51:21.433Z,15.10
2022-09-28T15:54:13.727Z,15.00
2022-09-28T15:56:59.537Z,14.80
2022-09-28T15:59:39.342Z,14.80
2022-09-28T16:02:16.609Z,14.60
2022-09-28T16:04:56.081Z,14.50
2022-09-28T16:07:31.090Z,14.40
2022-09-28T16:10:13.553Z,14.20
2022-09-28T16:12:42.637Z,14.10
2022-09-28T16:15:12.936Z,14.00
2022-09-28T16:17:41.644Z,14.10
2022-09-28T16:20:28.429Z,13.90
2022-09-28T16:22:59.484Z,12.30
2022-09-28T16:25:27.309Z,13.10
2022-09-28T16:27:55.348Z,14.30
2022-09-28T16:30:32.385Z,13.20
2022-09-28T16:33:06.070Z,13.50
2022-09-28T16:35:53.678Z,13.50
2022-09-28T16:38:21.466Z,13.40
2022-09-28T16:40:51.253Z,13.30
2022-09-28T16:43:26.679Z,13.20
2022-09-28T16:46:00.708Z,12.50
2022-09-28T16:48:30.587Z,13.20
2022-09-28T16:50:58.820Z,13.20
2022-09-28T16:53:44.970Z,13.20
2022-09-28T16:56:13.367Z,13.20
2022-09-28T16:58:42.436Z,13.30
2022-09-28T17:01:12.003Z,13.10
2022-09-28T17:03:42.299Z,13.00
2022-09-28T17:06:12.222Z,12.90
2022-09-28T17:08:39.679Z,13.80
2022-09-28T17:11:19.249Z,12.80
2022-09-28T17:13:51.754Z,12.70
2022-09-28T17:16:32.616Z,12.20
2022-09-28T17:19:26.819Z,12.80
2022-09-28T17:21:54.095Z,12.50
2022-09-28T17:24:21.736Z,12.40
2022-09-28T17:26:50.823Z,12.40
2022-09-28T17:29:19.143Z,12.30
2022-09-28T17:31:47.470Z,12.30
2022-09-28T17:34:16.185Z,14.20
2022-09-28T17:36:44.839Z,12.20
2022-09-28T17:39:17.605Z,12.20
2022-09-28T17:41:45.363Z,12.10
2022-09-28T17:44:16.094Z,12.10
2022-09-28T17:46:47.542Z,12.10
2022-09-28T17:49:15.573Z,12.10
2022-09-28T17:51:42.962Z,13.50
2022-09-28T17:54:11.049Z,13.40
2022-09-28T17:56:38.415Z,11.90
2022-09-28T17:59:10.389Z,11.90
2022-09-28T18:01:39.671Z,11.60
2022-09-28T18:04:13.181Z,12.80
2022-09-28T18:06:46.451Z,12.00
2022-09-28T18:09:15.166Z,11.90
2022-09-28T18:11:45.369Z,12.20
2022-09-28T18:14:12.904Z,11.80
2022-09-28T18:16:40.371Z,11.80
2022-09-28T18:19:07.683Z,11.80
2022-09-28T18:21:35.113Z,11.70
2022-09-28T18:24:02.433Z,11.70
2022-09-28T18:26:29.797Z,11.70
2022-09-28T18:28:57.472Z,11.70
2022-09-28T18:31:25.001Z,11.70
2022-09-28T18:33:59.245Z,11.70
2022-09-28T18:36:32.125Z,11.70
2022-09-28T18:39:01.558Z,11.80
2022-09-28T18:41:29.444Z,11.70
2022-09-28T18:44:00.751Z,12.30
2022-09-28T18:46:29.710Z,11.70
2022-09-28T18:48:57.678Z,11.70
2022-09-28T18:51:25.074Z,13.50
2022-09-28T18:53:52.604Z,11.70
2022-09-28T18:56:20.925Z,11.60
2022-09-28T18:58:51.659Z,11.70
2022-09-28T19:01:36.011Z,11.60
2022-09-28T19:04:09.675Z,11.60
2022-09-28T19:06:41.929Z,11.60
2022-09-28T19:09:10.549Z,11.60
2022-09-28T19:11:38.050Z,11.50
2022-09-28T19:14:05.650Z,11.50
2022-09-28T19:16:35.774Z,11.30
2022-09-28T19:19:03.289Z,11.50
2022-09-28T19:21:30.995Z,11.50
2022-09-28T19:24:01.252Z,11.50
2022-09-28T19:26:29.804Z,11.50
2022-09-28T19:28:58.450Z,12.10
2022-09-28T19:31:27.089Z,11.40
2022-09-28T19:33:54.361Z,11.50
2022-09-28T19:36:24.241Z,11.60
2022-09-28T19:38:56.995Z,11.40
2022-09-28T19:41:43.811Z,11.40
2022-09-28T19:44:26.063Z,13.00
2022-09-28T19:46:58.088Z,11.30
2022-09-28T19:49:27.083Z,11.30
2022-09-28T19:52:14.400Z,11.20
2022-09-28T19:54:48.341Z,11.10
2022-09-28T19:57:16.064Z,11.10
2022-09-28T19:59:43.859Z,11.00
2022-09-28T20:02:11.661Z,12.40
2022-09-28T20:04:39.138Z,10.90
2022-09-28T20:07:06.532Z,10.90
2022-09-28T20:09:33.942Z,10.40
2022-09-28T20:12:01.509Z,10.80
2022-09-28T20:14:33.082Z,10.80
2022-09-28T20:17:01.505Z,10.70
2022-09-28T20:19:28.985Z,10.70
2022-09-28T20:21:59.460Z,10.40
2022-09-28T20:24:28.777Z,13.10
2022-09-28T20:26:56.237Z,12.30
2022-09-28T20:29:24.382Z,10.80
2022-09-28T20:31:52.034Z,11.40
2022-09-28T20:34:19.536Z,11.70
2022-09-28T20:36:46.922Z,10.90
2022-09-28T20:39:14.486Z,10.40
2022-09-28T20:41:42.048Z,12.30
2022-09-28T20:44:09.864Z,10.30
2022-09-28T20:46:38.238Z,12.30
2022-09-28T20:49:07.117Z,10.30
2022-09-28T20:51:34.629Z,10.10
2022-09-28T20:54:01.986Z,10.20
2022-09-28T20:56:37.711Z,10.70
2022-09-28T20:59:11.237Z,11.60
2022-09-28T21:01:39.048Z,10.20
2022-09-28T21:04:08.624Z,10.10
2022-09-28T21:06:38.518Z,10.40
2022-09-28T21:09:07.682Z,10.10
2022-09-28T21:11:35.933Z,10.00
2022-09-28T21:14:06.345Z,10.00
2022-09-28T21:16:35.510Z,9.90
2022-09-28T21:19:03.836Z,9.90
2022-09-28T21:21:31.422Z,10.50
2022-09-28T21:23:59.393Z,9.60
2022-09-28T21:26:29.315Z,9.60
2022-09-28T21:29:06.115Z,9.50
2022-09-28T21:31:45.500Z,9.70
2022-09-28T21:34:20.368Z,9.60
2022-09-28T21:36:50.985Z,9.60
2022-09-28T21:39:18.942Z,11.30
2022-09-28T21:41:46.289Z,11.10
2022-09-28T21:44:13.704Z,9.50
2022-09-28T21:46:42.023Z,9.50
2022-09-28T21:49:10.795Z,9.50
2022-09-28T21:51:38.172Z,10.20
2022-09-28T21:54:05.900Z,9.40
2022-09-28T21:56:33.900Z,9.40
2022-09-28T21:59:01.523Z,8.80
2022-09-28T22:01:29.342Z,11.20
2022-09-28T22:03:57.180Z,9.20
2022-09-28T22:06:29.553Z,11.20
2022-09-28T22:08:58.206Z,9.80
2022-09-28T22:11:27.771Z,8.90
2022-09-28T22:13:57.635Z,9.50
2022-09-28T22:16:28.219Z,9.10
2022-09-28T22:18:55.782Z,9.10
2022-09-28T22:21:25.879Z,9.00
2022-09-28T22:23:53.488Z,8.80
2022-09-28T22:26:23.937Z,8.70
2022-09-28T22:28:53.850Z,8.90
2022-09-28T22:31:24.278Z,9.60
2022-09-28T22:33:52.109Z,8.80
2022-09-28T22:36:19.982Z,9.00
2022-09-28T22:38:47.810Z,8.90
2022-09-28T22:41:16.985Z,9.00
2022-09-28T22:43:44.532Z,9.70
2022-09-28T22:46:14.296Z,8.60
2022-09-28T22:48:45.326Z,9.10
2022-09-28T22:51:12.648Z,8.50
2022-09-28T22:53:39.957Z,8.50
2022-09-28T22:56:08.670Z,8.90
2022-09-28T22:58:37.260Z,9.10
2022-09-28T23:01:17.388Z,8.20
2022-09-28T23:03:45.420Z,8.40
2022-09-28T23:06:16.500Z,8.60
2022-09-28T23:08:45.473Z,9.40
2022-09-28T23:11:13.037Z,8.70
2022-09-28T23:13:40.425Z,7.50
2022-09-28T23:16:11.031Z,8.50
2022-09-28T23:18:42.837Z,8.30
2022-09-28T23:21:15.142Z,8.10
2022-09-28T23:23:43.524Z,8.30
2022-09-28T23:26:27.488Z,10.60
2022-09-28T23:28:55.488Z,9.40
2022-09-28T23:31:26.267Z,9.80
2022-09-28T23:33:59.404Z,9.80
2022-09-28T23:36:27.342Z,9.30
2022-09-28T23:38:54.938Z,8.80
2022-09-28T23:41:22.284Z,8.40
2022-09-28T23:43:49.669Z,8.10
2022-09-28T23:46:20.782Z,8.10
2022-09-28T23:48:49.712Z,9.00
2022-09-28T23:51:17.228Z,8.00
2022-09-28T23:53:44.882Z,9.90
2022-09-28T23:56:14.334Z,7.70
2022-09-28T23:58:41.718Z,7.70
